Time;durP1;ratioP1;P1;durP2;ratioP2;P2;SDS_P1;SDS_P2;PMS_P1;PMS_P2;Temp;Humidity;BMP_temperature;BMP_pressure;BME280_temperature;BME280_humidity;BME280_pressure;Samples;Min_cycle;Max_cycle;Signal;HPM_P1;HPM_P2
2023/01/19 00:02:29;;;;;;;3.67;2.40;;;;;;;;;;10237398;28;20060;-80
2023/01/19 00:07:34;;;;;;;4.03;2.53;;;;;;;;;;10222081;28;20043;-80
2023/01/19 00:12:38;;;;;;;3.80;2.28;;;;;;;;;;10235484;28;20037;-81
2023/01/19 00:17:41;;;;;;;5.22;2.75;;;;;;;;;;10243155;28;20043;-80
2023/01/19 00:22:49;;;;;;;3.92;2.50;;;;;;;;;;10242433;28;20043;-80
2023/01/19 00:27:53;;;;;;;5.82;2.58;;;;;;;;;;10257642;28;20625;-80
2023/01/19 00:32:56;;;;;;;3.58;2.30;;;;;;;;;;10248248;28;20118;-81
2023/01/19 00:38:02;;;;;;;6.70;2.47;;;;;;;;;;10258692;28;20057;-80
2023/01/19 00:43:06;;;;;;;5.13;2.77;;;;;;;;;;10234455;28;20083;-80
2023/01/19 00:48:09;;;;;;;4.25;2.30;;;;;;;;;;10255919;28;20255;-80
2023/01/19 00:53:14;;;;;;;5.20;2.90;;;;;;;;;;10246268;28;20057;-80
2023/01/19 00:58:18;;;;;;;4.32;2.75;;;;;;;;;;10235018;28;20738;-81
2023/01/19 01:03:26;;;;;;;4.18;2.65;;;;;;;;;;10215404;28;20054;-80
2023/01/19 01:08:32;;;;;;;3.92;2.35;;;;;;;;;;10240235;28;20542;-81
2023/01/19 01:13:35;;;;;;;3.50;2.25;;;;;;;;;;10231802;28;20047;-81
2023/01/19 01:18:38;;;;;;;7.32;3.42;;;;;;;;;;10239245;28;20123;-80
2023/01/19 01:23:43;;;;;;;6.95;3.92;;;;;;;;;;10243955;28;20042;-80
2023/01/19 01:28:47;;;;;;;6.72;3.28;;;;;;;;;;10228869;28;20058;-81
2023/01/19 01:33:50;;;;;;;3.38;2.30;;;;;;;;;;10239534;28;20055;-80
2023/01/19 01:38:55;;;;;;;4.63;2.45;;;;;;;;;;10248795;28;20303;-81
2023/01/19 01:44:00;;;;;;;5.40;2.75;;;;;;;;;;10243181;28;20058;-80
2023/01/19 01:49:07;;;;;;;2.80;2.00;;;;;;;;;;10241304;28;20098;-81
2023/01/19 01:54:16;;;;;;;3.67;2.42;;;;;;;;;;10237482;28;20055;-81
2023/01/19 01:59:25;;;;;;;3.70;2.22;;;;;;;;;;10230950;28;20716;-81
2023/01/19 02:04:30;;;;;;;3.03;1.85;;;;;;;;;;10241743;28;20074;-80
2023/01/19 02:14:57;;;;;;;2.85;1.98;;;;;;;;;;10233916;28;20043;-80
2023/01/19 02:20:01;;;;;;;3.08;1.75;;;;;;;;;;10255539;28;20417;-81
2023/01/19 02:25:06;;;;;;;3.35;2.00;;;;;;;;;;10269822;28;20059;-81
2023/01/19 02:30:11;;;;;;;2.38;1.80;;;;;;;;;;10245770;28;20425;-80
2023/01/19 02:35:15;;;;;;;3.20;2.35;;;;;;;;;;10258874;28;20046;-81
2023/01/19 02:40:23;;;;;;;2.30;1.70;;;;;;;;;;10255073;28;20066;-80
2023/01/19 02:45:27;;;;;;;2.60;2.10;;;;;;;;;;10232103;28;20051;-81
2023/01/19 02:50:42;;;;;;;3.17;1.77;;;;;;;;;;10220479;28;20561;-81
2023/01/19 02:55:51;;;;;;;2.65;1.90;;;;;;;;;;10206814;28;20722;-81
2023/01/19 03:01:07;;;;;;;2.15;1.77;;;;;;;;;;10209120;28;20051;-81
2023/01/19 03:06:21;;;;;;;2.97;2.20;;;;;;;;;;10207996;28;20086;-81
2023/01/19 03:11:30;;;;;;;2.92;2.10;;;;;;;;;;10203891;28;20031;-80
2023/01/19 03:16:39;;;;;;;2.10;1.75;;;;;;;;;;10210864;28;20048;-82
2023/01/19 03:21:47;;;;;;;4.55;2.10;;;;;;;;;;10219539;28;20050;-82
2023/01/19 03:26:57;;;;;;;3.33;2.38;;;;;;;;;;10202050;28;20039;-82
2023/01/19 03:32:06;;;;;;;4.72;2.13;;;;;;;;;;10203465;28;20063;-81
2023/01/19 03:37:11;;;;;;;2.22;2.03;;;;;;;;;;10219551;28;20430;-82
2023/01/19 03:42:17;;;;;;;3.50;2.60;;;;;;;;;;10221944;28;20511;-82
2023/01/19 03:47:21;;;;;;;4.57;2.38;;;;;;;;;;10199592;28;20047;-82
2023/01/19 03:52:29;;;;;;;3.22;2.33;;;;;;;;;;10204458;28;20040;-81
2023/01/19 03:57:33;;;;;;;4.93;2.20;;;;;;;;;;10203636;28;20046;-81
2023/01/19 04:02:36;;;;;;;2.88;2.05;;;;;;;;;;10203644;28;20476;-82
2023/01/19 04:07:40;;;;;;;3.28;2.20;;;;;;;;;;10206516;28;20067;-81
2023/01/19 04:12:45;;;;;;;5.03;1.85;;;;;;;;;;10216006;28;20043;-82
2023/01/19 04:17:48;;;;;;;3.03;1.98;;;;;;;;;;10206533;28;20082;-81
2023/01/19 04:22:52;;;;;;;2.78;1.90;;;;;;;;;;10223123;28;20669;-81
2023/01/19 04:27:57;;;;;;;2.13;1.65;;;;;;;;;;10219998;28;20071;-81
2023/01/19 04:33:01;;;;;;;1.88;1.52;;;;;;;;;;10198074;28;20053;-81
2023/01/19 04:38:05;;;;;;;4.07;1.85;;;;;;;;;;10202125;28;20705;-82
2023/01/19 04:43:09;;;;;;;2.55;1.92;;;;;;;;;;10202300;28;20046;-81
2023/01/19 04:48:13;;;;;;;2.40;1.73;;;;;;;;;;10201229;28;20051;-81
2023/01/19 04:53:17;;;;;;;2.88;1.50;;;;;;;;;;10204251;28;20062;-82
2023/01/19 04:58:22;;;;;;;4.25;2.35;;;;;;;;;;10215494;28;20058;-81
2023/01/19 05:03:25;;;;;;;3.25;1.60;;;;;;;;;;10204894;29;20043;-83
2023/01/19 05:08:29;;;;;;;2.28;1.70;;;;;;;;;;10214969;29;20078;-82
2023/01/19 05:13:34;;;;;;;2.88;1.90;;;;;;;;;;10208240;28;20047;-82
2023/01/19 05:18:37;;;;;;;2.15;1.70;;;;;;;;;;10210515;29;20146;-82
2023/01/19 05:23:40;;;;;;;2.72;2.05;;;;;;;;;;10229783;28;20059;-81
2023/01/19 05:28:45;;;;;;;1.85;1.52;;;;;;;;;;10230126;28;20043;-82
2023/01/19 05:33:48;;;;;;;2.97;2.00;;;;;;;;;;10212205;29;20055;-82
2023/01/19 05:38:52;;;;;;;3.22;2.28;;;;;;;;;;10207767;29;20735;-82
2023/01/19 05:43:57;;;;;;;2.30;1.75;;;;;;;;;;10214755;28;20055;-81
2023/01/19 05:49:03;;;;;;;3.85;1.98;;;;;;;;;;10222492;28;20051;-80
2023/01/19 05:54:07;;;;;;;2.30;1.98;;;;;;;;;;10224032;29;20503;-81
2023/01/19 05:59:12;;;;;;;4.22;2.67;;;;;;;;;;10224209;29;20055;-83
2023/01/19 06:04:15;;;;;;;7.80;4.70;;;;;;;;;;10224302;28;20055;-82
2023/01/19 06:09:18;;;;;;;8.77;5.03;;;;;;;;;;10223024;29;20047;-83
2023/01/19 06:14:35;;;;;;;6.07;3.63;;;;;;;;;;10205292;28;20107;-84
2023/01/19 06:19:40;;;;;;;8.07;5.10;;;;;;;;;;10239582;29;20066;-85
2023/01/19 06:24:44;;;;;;;5.68;3.72;;;;;;;;;;10228446;28;20043;-84
2023/01/19 06:29:48;;;;;;;5.47;4.00;;;;;;;;;;10236806;28;20106;-81
2023/01/19 06:34:51;;;;;;;6.15;3.80;;;;;;;;;;10231090;29;20673;-82
2023/01/19 06:39:56;;;;;;;6.78;4.32;;;;;;;;;;10228157;28;20442;-84
2023/01/19 06:45:00;;;;;;;4.85;3.30;;;;;;;;;;10229486;29;20529;-83
2023/01/19 06:50:04;;;;;;;5.50;3.35;;;;;;;;;;10232524;29;20055;-84
2023/01/19 06:55:09;;;;;;;4.75;3.38;;;;;;;;;;10225599;28;20127;-83
2023/01/19 07:00:15;;;;;;;6.22;2.90;;;;;;;;;;10217413;29;20071;-83
2023/01/19 07:05:20;;;;;;;;;;;;;;;;;;10219264;29;20071;-82
2023/01/19 07:10:24;;;;;;;7.88;3.83;;;;;;;;;;10223930;29;20556;-80
2023/01/19 07:15:29;;;;;;;5.25;3.28;;;;;;;;;;10207550;29;20050;-81
2023/01/19 07:20:32;;;;;;;3.85;2.53;;;;;;;;;;10208142;28;20047;-81
2023/01/19 07:25:37;;;;;;;4.15;2.75;;;;;;;;;;10227405;29;20043;-82
2023/01/19 07:30:42;;;;;;;4.32;2.80;;;;;;;;;;10209308;28;20840;-81
2023/01/19 07:35:47;;;;;;;4.87;2.50;;;;;;;;;;10227247;29;20047;-82
2023/01/19 07:40:50;;;;;;;3.58;2.10;;;;;;;;;;10227219;28;20051;-82
2023/01/19 07:45:58;;;;;;;6.85;3.03;;;;;;;;;;10209792;28;20062;-81
2023/01/19 07:51:04;;;;;;;3.42;2.50;;;;;;;;;;10213411;29;20074;-82
2023/01/19 07:56:08;;;;;;;5.00;3.15;;;;;;;;;;10211464;28;20192;-82
2023/01/19 08:01:13;;;;;;;3.10;2.00;;;;;;;;;;10211208;29;20051;-83
2023/01/19 08:06:20;;;;;;;2.90;2.17;;;;;;;;;;10212634;28;20058;-83
2023/01/19 08:11:24;;;;;;;2.90;2.20;;;;;;;;;;10208998;29;20051;-82
2023/01/19 08:16:29;;;;;;;4.70;2.70;;;;;;;;;;10209631;29;20047;-81
2023/01/19 08:21:34;;;;;;;3.28;2.00;;;;;;;;;;10223218;28;20233;-82
2023/01/19 08:26:37;;;;;;;4.35;2.75;;;;;;;;;;10220628;28;20637;-83
2023/01/19 08:31:42;;;;;;;5.75;3.50;;;;;;;;;;10214254;28;20048;-81
2023/01/19 08:36:46;;;;;;;4.65;2.90;;;;;;;;;;10203252;29;20122;-82
2023/01/19 08:41:49;;;;;;;5.25;4.03;;;;;;;;;;10204290;29;20093;-82
2023/01/19 08:46:54;;;;;;;7.07;4.05;;;;;;;;;;10203760;29;20043;-83
2023/01/19 08:51:58;;;;;;;6.80;3.40;;;;;;;;;;10200277;29;20047;-83
2023/01/19 08:57:01;;;;;;;4.30;2.67;;;;;;;;;;10203659;29;20063;-83
2023/01/19 09:02:05;;;;;;;3.08;2.03;;;;;;;;;;10202808;28;20418;-82
2023/01/19 09:07:09;;;;;;;4.57;2.63;;;;;;;;;;10202746;29;20547;-83
2023/01/19 09:12:12;;;;;;;4.47;2.22;;;;;;;;;;10205735;28;20082;-82
2023/01/19 09:17:17;;;;;;;4.22;2.60;;;;;;;;;;10221134;28;20438;-82
2023/01/19 09:22:21;;;;;;;4.05;2.60;;;;;;;;;;10220790;28;20050;-82
2023/01/19 09:27:24;;;;;;;2.83;2.15;;;;;;;;;;10204851;29;20620;-82
2023/01/19 09:32:29;;;;;;;4.78;3.00;;;;;;;;;;10204051;29;20050;-81
2023/01/19 09:37:32;;;;;;;3.30;2.25;;;;;;;;;;10203847;28;20040;-81
2023/01/19 09:42:42;;;;;;;6.13;3.40;;;;;;;;;;10208364;29;20050;-82
2023/01/19 09:47:49;;;;;;;2.33;1.85;;;;;;;;;;10200680;28;20050;-81
2023/01/19 09:52:59;;;;;;;7.03;3.30;;;;;;;;;;10201204;29;20071;-82
2023/01/19 09:58:09;;;;;;;2.85;2.25;;;;;;;;;;10198490;29;20047;-82
2023/01/19 10:03:16;;;;;;;2.85;2.15;;;;;;;;;;10217732;28;20051;-82
2023/01/19 10:08:26;;;;;;;7.25;2.95;;;;;;;;;;10201509;29;20058;-83
2023/01/19 10:13:39;;;;;;;3.40;2.38;;;;;;;;;;10202079;29;20070;-83
2023/01/19 10:18:47;;;;;;;5.20;2.75;;;;;;;;;;10210769;29;20110;-83
2023/01/19 10:23:54;;;;;;;3.22;2.22;;;;;;;;;;10223944;29;20167;-83
2023/01/19 10:29:04;;;;;;;2.97;2.40;;;;;;;;;;10219887;29;20058;-83
2023/01/19 10:34:14;;;;;;;4.38;2.60;;;;;;;;;;10231371;28;20074;-84
2023/01/19 10:39:21;;;;;;;3.45;2.00;;;;;;;;;;10220426;28;20279;-82
2023/01/19 10:44:25;;;;;;;3.38;2.08;;;;;;;;;;10204796;28;20081;-82
2023/01/19 10:49:36;;;;;;;2.55;2.33;;;;;;;;;;10198763;29;20134;-83
2023/01/19 10:54:43;;;;;;;2.75;2.08;;;;;;;;;;10202452;29;20142;-83
2023/01/19 10:59:49;;;;;;;4.85;2.50;;;;;;;;;;10202609;29;20051;-84
2023/01/19 11:04:57;;;;;;;3.10;2.13;;;;;;;;;;10198977;28;20043;-83
2023/01/19 11:10:20;;;;;;;5.13;3.30;;;;;;;;;;10200359;29;20293;-83
2023/01/19 11:15:29;;;;;;;4.53;2.65;;;;;;;;;;10200838;29;20047;-84
2023/01/19 11:20:42;;;;;;;6.15;3.05;;;;;;;;;;10203510;29;20066;-83
2023/01/19 11:25:49;;;;;;;4.30;2.97;;;;;;;;;;10199061;29;20051;-83
2023/01/19 11:30:56;;;;;;;6.95;3.83;;;;;;;;;;10218477;29;20051;-83
2023/01/19 11:36:07;;;;;;;3.08;2.38;;;;;;;;;;10195713;28;20122;-84
2023/01/19 11:41:19;;;;;;;3.20;2.60;;;;;;;;;;10195729;28;20095;-83
2023/01/19 11:46:26;;;;;;;4.72;2.78;;;;;;;;;;10208080;28;20118;-84
2023/01/19 11:51:35;;;;;;;4.25;3.17;;;;;;;;;;10220318;28;20047;-83
2023/01/19 11:56:39;;;;;;;5.22;3.30;;;;;;;;;;10213193;28;20039;-84
2023/01/19 12:01:49;;;;;;;5.07;2.80;;;;;;;;;;10202303;29;20059;-84
2023/01/19 12:06:56;;;;;;;3.67;2.58;;;;;;;;;;10214205;29;20051;-84
2023/01/19 12:12:04;;;;;;;5.30;2.70;;;;;;;;;;10209699;29;20056;-85
2023/01/19 12:17:16;;;;;;;5.63;3.17;;;;;;;;;;10216211;28;20672;-87
2023/01/19 12:22:22;;;;;;;4.53;2.63;;;;;;;;;;10203773;29;20629;-86
2023/01/19 12:27:39;;;;;;;6.00;2.60;;;;;;;;;;10198834;28;20053;-87
2023/01/19 12:32:43;;;;;;;5.35;2.78;;;;;;;;;;10224275;29;20130;-87
2023/01/19 12:37:51;;;;;;;5.88;2.92;;;;;;;;;;10206542;29;20330;-87
2023/01/19 12:48:31;;;;;;;4.65;2.88;;;;;;;;;;10155535;29;20068;-88
2023/01/19 12:53:36;;;;;;;7.45;3.53;;;;;;;;;;10190035;28;20067;-87
2023/01/19 12:58:46;;;;;;;4.03;3.08;;;;;;;;;;10191330;28;20344;-87
2023/01/19 13:04:01;;;;;;;7.15;2.28;;;;;;;;;;10191110;28;20077;-87
2023/01/19 13:09:29;;;;;;;4.67;2.67;;;;;;;;;;10164053;28;20092;-87
2023/01/19 13:14:37;;;;;;;3.50;2.08;;;;;;;;;;10199829;28;20671;-87
2023/01/19 13:20:03;;;;;;;4.20;2.47;;;;;;;;;;10186427;28;20095;-86
2023/01/19 13:25:13;;;;;;;6.38;3.15;;;;;;;;;;10180872;28;20056;-87
2023/01/19 13:30:19;;;;;;;5.55;3.10;;;;;;;;;;10191098;28;20054;-88
2023/01/19 13:35:23;;;;;;;6.63;3.67;;;;;;;;;;10193468;28;20531;-85
2023/01/19 13:40:35;;;;;;;5.00;3.25;;;;;;;;;;10165670;28;20062;-86
2023/01/19 13:45:42;;;;;;;5.90;3.45;;;;;;;;;;10162248;28;20040;-86
2023/01/19 13:50:59;;;;;;;3.95;2.67;;;;;;;;;;10177951;28;20410;-85
2023/01/19 13:56:20;;;;;;;4.78;2.75;;;;;;;;;;10158260;28;20131;-84
2023/01/19 14:01:24;;;;;;;6.40;3.80;;;;;;;;;;10161833;29;20119;-84
2023/01/19 14:06:37;;;;;;;4.75;2.72;;;;;;;;;;10190219;28;20040;-83
2023/01/19 14:11:42;;;;;;;3.20;2.70;;;;;;;;;;10196934;28;20047;-83
2023/01/19 14:16:45;;;;;;;6.00;3.50;;;;;;;;;;10164873;29;20051;-84
2023/01/19 14:21:59;;;;;;;3.30;2.38;;;;;;;;;;10166175;29;20047;-82
2023/01/19 14:27:19;;;;;;;5.10;2.30;;;;;;;;;;10157431;29;20044;-82
2023/01/19 14:32:24;;;;;;;2.55;1.88;;;;;;;;;;10166630;29;20055;-82
2023/01/19 14:37:28;;;;;;;2.47;1.50;;;;;;;;;;10198111;28;20095;-83
2023/01/19 14:42:36;;;;;;;4.60;3.28;;;;;;;;;;10186461;28;20127;-82
2023/01/19 14:47:43;;;;;;;5.55;2.60;;;;;;;;;;10198229;28;20123;-83
2023/01/19 14:52:55;;;;;;;3.30;2.40;;;;;;;;;;10191468;28;20051;-84
2023/01/19 14:58:00;;;;;;;3.20;1.80;;;;;;;;;;10187375;28;20058;-83
2023/01/19 15:03:04;;;;;;;2.63;1.40;;;;;;;;;;10183778;28;20056;-82
2023/01/19 15:08:11;;;;;;;1.98;1.35;;;;;;;;;;10173490;28;20052;-82
2023/01/19 15:13:19;;;;;;;3.33;1.38;;;;;;;;;;10163838;29;20070;-82
2023/01/19 15:18:33;;;;;;;2.35;1.80;;;;;;;;;;10223422;28;20043;-84
2023/01/19 15:23:39;;;;;;;3.85;2.58;;;;;;;;;;10225488;28;20409;-83
2023/01/19 15:28:50;;;;;;;2.78;1.77;;;;;;;;;;10228678;28;20054;-83
2023/01/19 15:33:53;;;;;;;2.92;2.15;;;;;;;;;;10220428;29;20126;-82
2023/01/19 15:38:58;;;;;;;4.25;2.17;;;;;;;;;;10218235;28;20051;-83
2023/01/19 15:44:04;;;;;;;3.83;2.42;;;;;;;;;;10207586;28;20472;-83
2023/01/19 15:49:08;;;;;;;4.18;2.55;;;;;;;;;;10217951;28;20631;-79
2023/01/19 15:54:15;;;;;;;2.15;1.77;;;;;;;;;;10230749;28;20050;-83
2023/01/19 15:59:19;;;;;;;3.78;2.50;;;;;;;;;;10227906;28;20051;-84
2023/01/19 16:04:25;;;;;;;3.15;2.05;;;;;;;;;;10214010;28;20059;-83
2023/01/19 16:09:28;;;;;;;2.45;1.80;;;;;;;;;;10207878;28;20047;-83
2023/01/19 16:14:36;;;;;;;2.67;1.50;;;;;;;;;;10230302;28;20035;-83
2023/01/19 16:19:41;;;;;;;2.28;1.40;;;;;;;;;;10224965;28;20049;-82
2023/01/19 16:24:45;;;;;;;3.40;1.45;;;;;;;;;;10200450;28;20051;-82
2023/01/19 16:29:50;;;;;;;1.65;1.30;;;;;;;;;;10212066;28;20666;-84
2023/01/19 16:34:53;;;;;;;3.63;1.27;;;;;;;;;;10219091;29;20061;-83
2023/01/19 16:39:57;;;;;;;2.17;1.23;;;;;;;;;;10216859;29;20055;-84
2023/01/19 16:45:02;;;;;;;1.10;1.00;;;;;;;;;;10189455;29;20166;-84
2023/01/19 16:50:09;;;;;;;2.10;1.40;;;;;;;;;;10179236;29;20054;-84
2023/01/19 16:55:14;;;;;;;1.90;1.25;;;;;;;;;;10208850;28;20039;-83
2023/01/19 17:00:19;;;;;;;1.30;1.20;;;;;;;;;;10202160;28;20135;-84
2023/01/19 17:05:23;;;;;;;1.60;1.25;;;;;;;;;;10201215;28;20067;-83
2023/01/19 17:10:29;;;;;;;2.17;1.63;;;;;;;;;;10219061;28;20134;-83
2023/01/19 17:15:39;;;;;;;2.42;1.58;;;;;;;;;;10202671;28;20047;-84
2023/01/19 17:20:49;;;;;;;5.18;1.77;;;;;;;;;;10206297;28;20053;-83
2023/01/19 17:25:53;;;;;;;;;;;;;;;;;;10194902;28;20706;-83
2023/01/19 17:31:05;;;;;;;2.17;1.40;;;;;;;;;;10199154;29;19949;-84
2023/01/19 17:36:12;;;;;;;4.10;2.35;;;;;;;;;;10214798;28;20051;-84
2023/01/19 17:41:17;;;;;;;3.92;2.30;;;;;;;;;;10212416;29;20094;-84
2023/01/19 17:46:24;;;;;;;4.55;2.70;;;;;;;;;;10234707;29;20066;-83
2023/01/19 17:51:28;;;;;;;5.82;2.95;;;;;;;;;;10228151;29;20043;-84
2023/01/19 17:56:36;;;;;;;4.40;2.63;;;;;;;;;;10210708;29;20066;-83
2023/01/19 18:01:43;;;;;;;6.88;3.05;;;;;;;;;;10209028;29;20584;-82
2023/01/19 18:06:47;;;;;;;4.70;2.45;;;;;;;;;;10212357;29;20054;-80
2023/01/19 18:11:51;;;;;;;7.50;2.20;;;;;;;;;;10216787;29;20042;-82
2023/01/19 18:16:56;;;;;;;4.30;2.50;;;;;;;;;;10212664;28;20063;-81
2023/01/19 18:21:59;;;;;;;2.72;1.95;;;;;;;;;;10210950;29;20122;-81
2023/01/19 18:27:03;;;;;;;3.38;2.28;;;;;;;;;;10219162;28;20082;-81
2023/01/19 18:32:07;;;;;;;3.25;2.28;;;;;;;;;;10204514;29;20047;-81
2023/01/19 18:37:10;;;;;;;5.13;2.55;;;;;;;;;;10219146;29;20043;-81
2023/01/19 18:42:14;;;;;;;5.90;3.10;;;;;;;;;;10201556;29;20069;-81
2023/01/19 18:47:18;;;;;;;4.88;3.20;;;;;;;;;;10197985;29;20043;-81
2023/01/19 18:52:22;;;;;;;5.60;3.53;;;;;;;;;;10204215;28;20047;-81
2023/01/19 18:57:25;;;;;;;6.97;3.55;;;;;;;;;;10206405;29;20050;-82
2023/01/19 19:02:30;;;;;;;8.38;3.97;;;;;;;;;;10209775;29;20062;-81
2023/01/19 19:07:35;;;;;;;7.22;3.85;;;;;;;;;;10210158;29;20043;-81
2023/01/19 19:12:38;;;;;;;9.02;4.55;;;;;;;;;;10225263;28;20047;-81
2023/01/19 19:17:43;;;;;;;9.50;4.25;;;;;;;;;;10209942;29;20407;-81
2023/01/19 19:22:46;;;;;;;6.00;4.00;;;;;;;;;;10230249;28;20047;-80
2023/01/19 19:27:53;;;;;;;6.53;3.78;;;;;;;;;;10215474;28;20471;-81
2023/01/19 19:32:59;;;;;;;6.80;3.28;;;;;;;;;;10210543;29;20150;-81
2023/01/19 19:38:03;;;;;;;6.43;3.83;;;;;;;;;;10225695;29;20051;-81
2023/01/19 19:43:06;;;;;;;6.80;4.10;;;;;;;;;;10228192;29;20063;-81
2023/01/19 19:48:11;;;;;;;5.47;3.33;;;;;;;;;;10227193;28;20057;-80
2023/01/19 19:53:14;;;;;;;6.13;3.47;;;;;;;;;;10229374;29;20058;-80
2023/01/19 19:58:17;;;;;;;4.47;2.85;;;;;;;;;;10213409;29;20035;-80
2023/01/19 20:03:25;;;;;;;6.70;3.47;;;;;;;;;;10210996;28;20557;-80
2023/01/19 20:08:29;;;;;;;5.30;3.47;;;;;;;;;;10213784;28;20050;-80
2023/01/19 20:13:33;;;;;;;9.07;5.25;;;;;;;;;;10230755;28;20061;-80
2023/01/19 20:18:39;;;;;;;8.95;5.00;;;;;;;;;;10212978;28;20039;-81
2023/01/19 20:23:42;;;;;;;9.90;4.50;;;;;;;;;;10214876;29;20053;-81
2023/01/19 20:28:46;;;;;;;9.13;4.28;;;;;;;;;;10212903;29;20287;-80
2023/01/19 20:34:08;;;;;;;7.35;4.25;;;;;;;;;;10193350;29;20813;-80
2023/01/19 20:39:12;;;;;;;7.13;3.90;;;;;;;;;;10227949;29;20054;-81
2023/01/19 20:44:17;;;;;;;7.18;3.70;;;;;;;;;;10211322;29;20061;-80
2023/01/19 20:49:22;;;;;;;8.00;4.10;;;;;;;;;;10209501;29;20047;-80
2023/01/19 20:54:29;;;;;;;6.95;4.05;;;;;;;;;;10221489;28;20052;-79
2023/01/19 20:59:35;;;;;;;8.05;5.13;;;;;;;;;;10203730;29;20057;-78
2023/01/19 21:04:40;;;;;;;9.07;4.45;;;;;;;;;;10208226;29;20126;-80
2023/01/19 21:09:43;;;;;;;8.63;4.55;;;;;;;;;;10208331;29;20122;-80
2023/01/19 21:14:47;;;;;;;10.88;4.85;;;;;;;;;;10205518;28;20410;-79
2023/01/19 21:19:51;;;;;;;9.60;4.85;;;;;;;;;;10224020;28;20057;-80
2023/01/19 21:24:55;;;;;;;10.52;4.20;;;;;;;;;;10206754;28;20126;-79
2023/01/19 21:30:01;;;;;;;6.95;3.92;;;;;;;;;;10207526;29;20054;-79
2023/01/19 21:35:06;;;;;;;9.10;4.25;;;;;;;;;;10211441;29;20077;-80
2023/01/19 21:40:11;;;;;;;9.23;4.57;;;;;;;;;;10209071;29;20055;-79
2023/01/19 21:45:15;;;;;;;5.40;3.22;;;;;;;;;;10207634;28;20051;-80
2023/01/19 21:50:20;;;;;;;6.63;3.88;;;;;;;;;;10206761;28;20047;-80
2023/01/19 21:55:23;;;;;;;6.80;3.88;;;;;;;;;;10207221;29;20515;-80
2023/01/19 22:00:28;;;;;;;6.93;4.10;;;;;;;;;;10225349;28;20166;-80
2023/01/19 22:05:35;;;;;;;6.00;3.50;;;;;;;;;;10211251;28;20126;-80
2023/01/19 22:10:39;;;;;;;6.80;3.35;;;;;;;;;;10206081;29;20046;-80
2023/01/19 22:15:42;;;;;;;7.55;3.90;;;;;;;;;;10208594;29;20451;-79
2023/01/19 22:20:47;;;;;;;7.15;4.25;;;;;;;;;;10232419;29;20110;-81
2023/01/19 22:25:50;;;;;;;5.60;2.95;;;;;;;;;;10221004;28;20054;-81
2023/01/19 22:30:53;;;;;;;4.72;3.25;;;;;;;;;;10244969;29;20138;-80
2023/01/19 22:36:10;;;;;;;4.95;2.65;;;;;;;;;;10243164;29;20044;-81
2023/01/19 22:41:16;;;;;;;7.22;3.05;;;;;;;;;;10247630;28;20151;-79
2023/01/19 22:46:19;;;;;;;5.57;2.63;;;;;;;;;;10224012;29;20051;-81
2023/01/19 22:51:25;;;;;;;5.07;2.70;;;;;;;;;;10227506;29;20098;-80
2023/01/19 22:56:31;;;;;;;5.03;3.03;;;;;;;;;;10225889;29;20050;-81
2023/01/19 23:01:36;;;;;;;4.88;3.08;;;;;;;;;;10225167;29;20491;-80
2023/01/19 23:06:41;;;;;;;6.40;3.33;;;;;;;;;;10242498;29;20040;-80
2023/01/19 23:11:48;;;;;;;5.72;2.90;;;;;;;;;;10227466;29;20039;-81
2023/01/19 23:16:52;;;;;;;4.45;3.17;;;;;;;;;;10227901;28;20737;-81
2023/01/19 23:21:57;;;;;;;7.03;3.70;;;;;;;;;;10227302;29;20063;-80
2023/01/19 23:27:01;;;;;;;8.40;4.07;;;;;;;;;;10224790;29;20058;-80
2023/01/19 23:32:04;;;;;;;6.93;4.25;;;;;;;;;;10221208;28;20055;-81
2023/01/19 23:37:09;;;;;;;6.63;4.13;;;;;;;;;;10219575;28;20061;-80
2023/01/19 23:42:13;;;;;;;9.27;4.25;;;;;;;;;;10214611;28;20527;-80
2023/01/19 23:47:16;;;;;;;6.93;3.92;;;;;;;;;;10220827;28;20061;-80
2023/01/19 23:52:21;;;;;;;6.43;3.83;;;;;;;;;;10235875;28;20051;-80
2023/01/19 23:57:24;;;;;;;8.65;3.90;;;;;;;;;;10216923;29;20050;-80
